Terminal Aerodrome Forecast
Issued by NWS Dallas/Fort Worth, TX

Home | Current Version | Previous Version | Text Only | Print | Product List | Glossary On
Versions: 1 2 3 4 5 6 7 8 9 10 11 12 13 14 15 16 17 18 19 20 21 22 23 24 25
620
FTUS44 KFWD 061125
TAFACT
TAF
KACT 061125Z 0612/0712 29010KT P6SM SCT200
     FM061500 33015KT P6SM SCT150
     FM062000 35014KT P6SM BKN050
     FM070000 VRB03KT P6SM SKC=

USA.gov is the U.S. government's official web portal to all federal, state and local government web resources and services.